Time;durP1;ratioP1;P1;durP2;ratioP2;P2;SDS_P1;SDS_P2;PMS_P1;PMS_P2;Temp;Humidity;BMP_temperature;BMP_pressure;BME280_temperature;BME280_humidity;BME280_pressure;Samples;Min_cycle;Max_cycle;Signal;HPM_P1;HPM_P2
2021/05/24 00:01:47;;;;;;;4.63;1.98;;;;;;;;;;4910839;29;20063;-57
2021/05/24 00:04:12;;;;;;;3.40;1.30;;;;;;;;;;4890215;29;20055;-52
2021/05/24 00:06:38;;;;;;;4.50;1.33;;;;;;;;;;4908439;29;20051;-55
2021/05/24 00:09:04;;;;;;;3.95;1.50;;;;;;;;;;4907127;29;21972;-54
2021/05/24 00:11:31;;;;;;;3.60;1.20;;;;;;;;;;4898969;29;20043;-52
2021/05/24 00:13:57;;;;;;;3.47;1.00;;;;;;;;;;4902562;29;20503;-54
2021/05/24 00:16:24;;;;;;;3.63;1.17;;;;;;;;;;4906924;29;20092;-56
2021/05/24 00:18:51;;;;;;;2.90;1.02;;;;;;;;;;4906373;29;20330;-55
2021/05/24 00:21:18;;;;;;;3.55;0.90;;;;;;;;;;4907902;29;20091;-52
2021/05/24 00:23:44;;;;;;;3.25;1.00;;;;;;;;;;4907806;29;20093;-53
2021/05/24 00:26:11;;;;;;;2.95;0.90;;;;;;;;;;4908531;29;20048;-55
2021/05/24 00:28:37;;;;;;;4.05;0.90;;;;;;;;;;4908336;29;20546;-57
2021/05/24 00:31:02;;;;;;;2.80;0.80;;;;;;;;;;4909061;29;20130;-57
2021/05/24 00:33:28;;;;;;;3.95;1.15;;;;;;;;;;4907786;29;20123;-55
2021/05/24 00:35:54;;;;;;;4.53;1.15;;;;;;;;;;4910007;29;21026;-56
2021/05/24 00:38:20;;;;;;;2.80;1.00;;;;;;;;;;4909277;29;20074;-55
2021/05/24 00:40:46;;;;;;;3.08;1.08;;;;;;;;;;4908162;29;20107;-54
2021/05/24 00:43:12;;;;;;;3.42;1.00;;;;;;;;;;4910437;29;20054;-55
2021/05/24 00:45:41;;;;;;;3.65;1.00;;;;;;;;;;4908494;29;20871;-56
2021/05/24 00:48:10;;;;;;;4.18;0.90;;;;;;;;;;4909947;29;20052;-57
2021/05/24 00:50:36;;;;;;;4.32;1.60;;;;;;;;;;4910293;29;20573;-58
2021/05/24 00:53:02;;;;;;;2.83;1.15;;;;;;;;;;4909765;29;20048;-56
2021/05/24 00:55:28;;;;;;;3.60;1.10;;;;;;;;;;4909108;29;20101;-52
2021/05/24 00:57:54;;;;;;;3.70;1.35;;;;;;;;;;4909644;29;20142;-54
2021/05/24 01:00:30;;;;;;;3.72;0.90;;;;;;;;;;4908243;29;20044;-56
2021/05/24 01:02:58;;;;;;;3.15;1.08;;;;;;;;;;4910533;29;20059;-56
2021/05/24 01:05:25;;;;;;;3.10;1.15;;;;;;;;;;4907452;29;20122;-54
2021/05/24 01:07:50;;;;;;;2.97;1.00;;;;;;;;;;4908334;29;20526;-56
2021/05/24 01:10:18;;;;;;;3.97;0.98;;;;;;;;;;4910360;29;20043;-55
2021/05/24 01:12:44;;;;;;;3.63;1.17;;;;;;;;;;4910598;29;20428;-57
2021/05/24 01:15:10;;;;;;;6.80;1.30;;;;;;;;;;4895537;29;20134;-57
2021/05/24 01:17:36;;;;;;;8.02;2.88;;;;;;;;;;4909963;29;20044;-56
2021/05/24 01:20:04;;;;;;;8.98;2.95;;;;;;;;;;4909619;29;20143;-56
2021/05/24 01:22:33;;;;;;;5.07;1.40;;;;;;;;;;4907409;29;20035;-55
2021/05/24 01:25:00;;;;;;;4.53;1.35;;;;;;;;;;4908786;29;20046;-55
2021/05/24 01:27:25;;;;;;;6.25;2.00;;;;;;;;;;4905190;29;20055;-54
2021/05/24 01:29:51;;;;;;;9.10;1.83;;;;;;;;;;4909495;29;20040;-54
2021/05/24 01:32:17;;;;;;;4.03;1.35;;;;;;;;;;4908621;29;20096;-56
2021/05/24 01:34:43;;;;;;;8.20;1.27;;;;;;;;;;4906804;29;20035;-55
2021/05/24 01:37:09;;;;;;;4.20;1.13;;;;;;;;;;4901299;29;20067;-54
2021/05/24 01:39:35;;;;;;;4.00;1.38;;;;;;;;;;4906165;29;20039;-55
2021/05/24 01:42:01;;;;;;;2.95;1.00;;;;;;;;;;4907966;29;20458;-55
2021/05/24 01:44:31;;;;;;;4.15;1.42;;;;;;;;;;4905902;29;20146;-52
2021/05/24 01:46:57;;;;;;;7.50;1.50;;;;;;;;;;4907703;29;20039;-55
2021/05/24 01:49:23;;;;;;;3.45;1.38;;;;;;;;;;4906052;29;20074;-55
2021/05/24 01:51:49;;;;;;;5.22;1.20;;;;;;;;;;4907444;29;20139;-51
2021/05/24 01:54:14;;;;;;;3.33;1.20;;;;;;;;;;4906698;29;20119;-55
2021/05/24 01:56:41;;;;;;;5.35;1.30;;;;;;;;;;4909306;29;20143;-57
2021/05/24 01:59:08;;;;;;;3.00;1.05;;;;;;;;;;4909072;29;20791;-57
2021/05/24 02:01:34;;;;;;;3.30;1.23;;;;;;;;;;4909013;29;20044;-57
2021/05/24 02:04:00;;;;;;;3.70;1.40;;;;;;;;;;4907627;29;20522;-56
2021/05/24 02:06:26;;;;;;;4.05;1.40;;;;;;;;;;4901658;29;20146;-58
2021/05/24 02:08:52;;;;;;;2.70;1.05;;;;;;;;;;4908246;29;20055;-56
2021/05/24 02:11:17;;;;;;;6.97;1.52;;;;;;;;;;4907766;29;20048;-55
2021/05/24 02:13:44;;;;;;;3.83;1.40;;;;;;;;;;4908393;29;20543;-57
2021/05/24 02:16:10;;;;;;;4.95;1.88;;;;;;;;;;4908738;29;20044;-56
2021/05/24 02:18:36;;;;;;;7.05;4.10;;;;;;;;;;4907792;29;20147;-57
2021/05/24 02:21:03;;;;;;;7.55;3.47;;;;;;;;;;4909540;29;20040;-56
2021/05/24 02:23:28;;;;;;;6.25;2.67;;;;;;;;;;4907320;29;20077;-56
2021/05/24 02:25:54;;;;;;;5.32;2.70;;;;;;;;;;4912407;29;21238;-57
2021/05/24 02:28:20;;;;;;;5.93;2.47;;;;;;;;;;4914589;29;20086;-56
2021/05/24 02:30:46;;;;;;;6.65;2.65;;;;;;;;;;4916995;29;20051;-55
2021/05/24 02:33:11;;;;;;;5.93;2.47;;;;;;;;;;4912359;29;20047;-55
2021/05/24 02:35:37;;;;;;;6.13;3.10;;;;;;;;;;4908106;29;20048;-54
2021/05/24 02:38:03;;;;;;;6.60;3.53;;;;;;;;;;4906250;29;20135;-55
2021/05/24 02:40:30;;;;;;;7.28;3.40;;;;;;;;;;4908313;29;20799;-56
2021/05/24 02:42:56;;;;;;;5.15;2.80;;;;;;;;;;4908708;29;20089;-54
2021/05/24 02:45:21;;;;;;;4.47;2.00;;;;;;;;;;4906955;29;21416;-56
2021/05/24 02:47:48;;;;;;;4.38;1.90;;;;;;;;;;4905706;29;20080;-54
2021/05/24 02:50:18;;;;;;;4.78;2.00;;;;;;;;;;4907276;29;20043;-55
2021/05/24 02:52:44;;;;;;;5.57;1.90;;;;;;;;;;4905752;29;20048;-56
2021/05/24 02:55:10;;;;;;;4.60;2.03;;;;;;;;;;4906581;29;20044;-57
2021/05/24 02:57:36;;;;;;;5.90;2.50;;;;;;;;;;4906138;29;20039;-53
2021/05/24 03:00:03;;;;;;;8.75;2.40;;;;;;;;;;4906972;29;20039;-57
2021/05/24 03:02:30;;;;;;;7.22;2.30;;;;;;;;;;4906261;29;20071;-56
2021/05/24 03:04:56;;;;;;;6.00;2.70;;;;;;;;;;4906188;29;20054;-55
2021/05/24 03:07:22;;;;;;;4.60;2.05;;;;;;;;;;4904470;29;20043;-57
2021/05/24 03:09:48;;;;;;;4.88;2.58;;;;;;;;;;4904272;29;20055;-57
2021/05/24 03:12:14;;;;;;;7.30;4.00;;;;;;;;;;4904212;29;20408;-55
2021/05/24 03:14:40;;;;;;;7.00;3.35;;;;;;;;;;4904387;29;21059;-57
2021/05/24 03:17:06;;;;;;;6.22;2.58;;;;;;;;;;4907603;29;20078;-56
2021/05/24 03:19:32;;;;;;;4.15;2.03;;;;;;;;;;4900225;29;20075;-56
2021/05/24 03:21:58;;;;;;;3.42;1.65;;;;;;;;;;4906983;29;20044;-56
2021/05/24 03:24:24;;;;;;;3.95;1.38;;;;;;;;;;4907350;29;20052;-56
2021/05/24 03:26:49;;;;;;;5.88;1.70;;;;;;;;;;4910766;29;20047;-55
2021/05/24 03:29:15;;;;;;;5.53;1.58;;;;;;;;;;4909332;29;20044;-54
2021/05/24 03:31:41;;;;;;;3.38;1.20;;;;;;;;;;4908975;29;20044;-56
2021/05/24 03:34:07;;;;;;;2.80;0.90;;;;;;;;;;4910758;29;20055;-54
2021/05/24 03:36:32;;;;;;;3.13;1.33;;;;;;;;;;4906091;29;20050;-56
2021/05/24 03:38:58;;;;;;;3.05;1.25;;;;;;;;;;4908287;29;20167;-55
2021/05/24 03:41:24;;;;;;;4.28;1.52;;;;;;;;;;4906655;29;20109;-55
2021/05/24 03:43:50;;;;;;;4.30;1.30;;;;;;;;;;4908439;29;20060;-57
2021/05/24 03:46:16;;;;;;;4.47;1.30;;;;;;;;;;4907630;29;20071;-56
2021/05/24 03:48:42;;;;;;;2.70;0.80;;;;;;;;;;4907028;29;20486;-52
2021/05/24 03:51:09;;;;;;;2.70;0.88;;;;;;;;;;4912363;29;20794;-54
2021/05/24 03:53:35;;;;;;;2.60;0.98;;;;;;;;;;4911344;29;20036;-55
2021/05/24 03:56:01;;;;;;;2.58;0.82;;;;;;;;;;4909446;29;20589;-55
2021/05/24 03:58:27;;;;;;;3.80;1.00;;;;;;;;;;4912114;29;20048;-55
2021/05/24 04:00:53;;;;;;;2.60;0.90;;;;;;;;;;4912597;29;20699;-53
2021/05/24 04:03:19;;;;;;;3.13;1.05;;;;;;;;;;4911522;29;20421;-55
2021/05/24 04:05:47;;;;;;;2.70;0.88;;;;;;;;;;4914123;29;20044;-54
2021/05/24 04:08:14;;;;;;;2.63;0.90;;;;;;;;;;4911724;29;20043;-56
2021/05/24 04:10:49;;;;;;;3.30;0.90;;;;;;;;;;4911115;29;20048;-53
2021/05/24 04:13:15;;;;;;;2.80;0.95;;;;;;;;;;4910444;29;20047;-53
2021/05/24 04:15:44;;;;;;;4.75;1.15;;;;;;;;;;4910316;29;20106;-56
2021/05/24 04:18:15;;;;;;;2.80;1.00;;;;;;;;;;4910006;29;20178;-56
2021/05/24 04:20:41;;;;;;;2.65;1.15;;;;;;;;;;4908275;29;20052;-57
2021/05/24 04:23:07;;;;;;;3.78;1.10;;;;;;;;;;4909920;29;20074;-56
2021/05/24 04:25:32;;;;;;;2.70;1.10;;;;;;;;;;4909049;29;20458;-54
2021/05/24 04:27:58;;;;;;;3.60;1.20;;;;;;;;;;4909131;29;20047;-54
2021/05/24 04:30:24;;;;;;;3.15;1.38;;;;;;;;;;4909505;29;20051;-56
2021/05/24 04:32:50;;;;;;;2.22;0.75;;;;;;;;;;4910379;29;20045;-57
2021/05/24 04:35:17;;;;;;;3.40;1.33;;;;;;;;;;4908575;29;20043;-52
2021/05/24 04:37:43;;;;;;;3.50;1.40;;;;;;;;;;4907421;29;20974;-55
2021/05/24 04:40:09;;;;;;;3.30;1.42;;;;;;;;;;4908559;29;20826;-53
2021/05/24 04:42:35;;;;;;;3.60;1.58;;;;;;;;;;4907924;29;20097;-56
2021/05/24 04:45:00;;;;;;;3.75;1.52;;;;;;;;;;4908570;29;20091;-55
2021/05/24 04:47:26;;;;;;;3.22;1.42;;;;;;;;;;4906972;29;20069;-53
2021/05/24 04:49:52;;;;;;;4.03;1.83;;;;;;;;;;4908731;29;20044;-54
2021/05/24 04:52:18;;;;;;;3.22;1.65;;;;;;;;;;4907008;29;20062;-53
2021/05/24 04:54:44;;;;;;;3.33;1.55;;;;;;;;;;4908841;29;20044;-52
2021/05/24 04:57:10;;;;;;;3.20;1.50;;;;;;;;;;4907553;29;20158;-52
2021/05/24 04:59:36;;;;;;;5.82;1.77;;;;;;;;;;4907570;29;20071;-56
2021/05/24 05:02:02;;;;;;;4.13;1.92;;;;;;;;;;4907649;29;20067;-56
2021/05/24 05:04:28;;;;;;;4.22;1.88;;;;;;;;;;4906571;29;20194;-53
2021/05/24 05:06:56;;;;;;;3.25;1.65;;;;;;;;;;4909136;29;20064;-55
2021/05/24 05:09:22;;;;;;;3.88;1.80;;;;;;;;;;4907055;29;20043;-56
2021/05/24 05:11:48;;;;;;;3.83;1.65;;;;;;;;;;4888913;29;20399;-55
2021/05/24 05:14:14;;;;;;;3.78;1.80;;;;;;;;;;4906683;29;20047;-55
2021/05/24 05:16:40;;;;;;;4.07;1.80;;;;;;;;;;4889131;29;20648;-53
2021/05/24 05:19:06;;;;;;;3.90;1.80;;;;;;;;;;4909476;29;20052;-55
2021/05/24 05:21:31;;;;;;;4.20;1.90;;;;;;;;;;4905846;29;20036;-56
2021/05/24 05:23:57;;;;;;;4.82;2.08;;;;;;;;;;4911087;29;20059;-56
2021/05/24 05:26:23;;;;;;;4.50;2.25;;;;;;;;;;4908008;29;20478;-55
2021/05/24 05:28:49;;;;;;;3.67;2.03;;;;;;;;;;4909859;29;20074;-53
2021/05/24 05:31:15;;;;;;;4.65;2.30;;;;;;;;;;4908327;29;20065;-55
2021/05/24 05:33:40;;;;;;;4.35;2.20;;;;;;;;;;4913809;29;20067;-54
2021/05/24 05:36:06;;;;;;;5.18;2.17;;;;;;;;;;4917482;29;20036;-55
2021/05/24 05:38:33;;;;;;;6.55;2.65;;;;;;;;;;4917371;29;20055;-53
2021/05/24 05:40:59;;;;;;;8.27;4.10;;;;;;;;;;4917833;29;20047;-54
2021/05/24 05:43:25;;;;;;;4.50;2.55;;;;;;;;;;4918992;29;20087;-56
2021/05/24 05:45:51;;;;;;;5.13;2.80;;;;;;;;;;4918423;29;20150;-54
2021/05/24 05:48:17;;;;;;;5.90;2.20;;;;;;;;;;4918591;29;20052;-54
2021/05/24 05:50:44;;;;;;;3.67;1.95;;;;;;;;;;4915983;29;20051;-54
2021/05/24 05:53:09;;;;;;;4.88;2.20;;;;;;;;;;4918116;29;20035;-54
2021/05/24 05:55:35;;;;;;;5.03;2.40;;;;;;;;;;4915961;29;20733;-57
2021/05/24 05:58:01;;;;;;;4.35;2.20;;;;;;;;;;4917104;29;20059;-56
2021/05/24 06:00:27;;;;;;;4.55;2.63;;;;;;;;;;4916552;29;20857;-54
2021/05/24 06:02:53;;;;;;;5.20;2.20;;;;;;;;;;4915397;29;20047;-55
2021/05/24 06:05:18;;;;;;;4.15;2.60;;;;;;;;;;4914966;29;20046;-54
2021/05/24 06:07:44;;;;;;;4.22;2.60;;;;;;;;;;4914790;29;20039;-55
2021/05/24 06:10:11;;;;;;;4.20;2.50;;;;;;;;;;4916235;29;22100;-52
2021/05/24 06:12:38;;;;;;;4.55;2.50;;;;;;;;;;4915604;29;20064;-54
2021/05/24 06:15:04;;;;;;;4.93;3.03;;;;;;;;;;4915382;29;20044;-56
2021/05/24 06:17:30;;;;;;;4.85;2.95;;;;;;;;;;4915408;29;20047;-56
2021/05/24 06:19:56;;;;;;;5.05;3.00;;;;;;;;;;4915088;29;20044;-53
2021/05/24 06:22:22;;;;;;;4.75;2.85;;;;;;;;;;4915536;29;20036;-54
2021/05/24 06:24:48;;;;;;;5.00;3.00;;;;;;;;;;4916174;29;20063;-55
2021/05/24 06:27:14;;;;;;;6.22;3.17;;;;;;;;;;4915869;29;20046;-51
2021/05/24 06:29:40;;;;;;;4.82;3.05;;;;;;;;;;4911342;29;20047;-55
2021/05/24 06:32:05;;;;;;;4.65;3.17;;;;;;;;;;4917986;29;20098;-52
2021/05/24 06:34:31;;;;;;;5.97;3.03;;;;;;;;;;4914374;29;20579;-55
2021/05/24 06:36:57;;;;;;;5.25;3.03;;;;;;;;;;4914413;29;20059;-56
2021/05/24 06:39:23;;;;;;;5.95;2.80;;;;;;;;;;4916971;29;20046;-53
2021/05/24 06:41:49;;;;;;;4.70;2.90;;;;;;;;;;4916526;29;20455;-54
2021/05/24 06:44:15;;;;;;;5.60;3.10;;;;;;;;;;4915442;29;20055;-56
2021/05/24 06:46:41;;;;;;;6.20;3.30;;;;;;;;;;4917626;29;20047;-54
2021/05/24 06:49:07;;;;;;;4.95;2.90;;;;;;;;;;4916474;29;20048;-55
2021/05/24 06:51:33;;;;;;;4.95;2.50;;;;;;;;;;4917418;29;20110;-53
2021/05/24 06:53:59;;;;;;;6.32;2.33;;;;;;;;;;4914501;29;20060;-52
2021/05/24 06:56:25;;;;;;;4.68;2.60;;;;;;;;;;4915907;29;20146;-54
2021/05/24 06:58:51;;;;;;;4.72;2.70;;;;;;;;;;4916619;29;20095;-54
2021/05/24 07:01:17;;;;;;;4.55;2.72;;;;;;;;;;4916777;29;20048;-55
2021/05/24 07:03:42;;;;;;;3.78;2.08;;;;;;;;;;4908949;29;20055;-53
2021/05/24 07:06:08;;;;;;;4.22;2.47;;;;;;;;;;4914920;29;20075;-54
2021/05/24 07:08:34;;;;;;;4.70;2.58;;;;;;;;;;4915806;29;20079;-53
2021/05/24 07:11:00;;;;;;;4.22;2.65;;;;;;;;;;4916589;29;20044;-53
2021/05/24 07:13:26;;;;;;;4.97;2.65;;;;;;;;;;4915061;29;20050;-55
2021/05/24 07:15:52;;;;;;;4.55;2.78;;;;;;;;;;4917453;29;20044;-56
2021/05/24 07:18:19;;;;;;;4.80;2.75;;;;;;;;;;4915200;29;20078;-55
2021/05/24 07:20:45;;;;;;;5.85;3.03;;;;;;;;;;4916784;29;20103;-52
2021/05/24 07:23:11;;;;;;;6.40;3.45;;;;;;;;;;4916508;29;20832;-56
2021/05/24 07:25:37;;;;;;;5.93;3.22;;;;;;;;;;4918327;29;20147;-56
2021/05/24 07:28:02;;;;;;;5.40;3.50;;;;;;;;;;4916439;29;20486;-54
2021/05/24 07:30:28;;;;;;;6.28;4.22;;;;;;;;;;4918167;29;20040;-55
2021/05/24 07:32:54;;;;;;;5.88;3.90;;;;;;;;;;4917632;29;20054;-55
2021/05/24 07:35:20;;;;;;;6.18;4.10;;;;;;;;;;4918612;29;20044;-55
2021/05/24 07:37:45;;;;;;;6.38;4.22;;;;;;;;;;4918170;29;20063;-56
2021/05/24 07:40:11;;;;;;;6.05;4.05;;;;;;;;;;4920124;29;20046;-56
2021/05/24 07:42:38;;;;;;;6.88;4.35;;;;;;;;;;4919640;29;20185;-56
2021/05/24 07:45:05;;;;;;;8.32;4.85;;;;;;;;;;4919168;29;20086;-52
2021/05/24 07:47:31;;;;;;;7.68;5.00;;;;;;;;;;4917813;29;20040;-55
2021/05/24 07:49:56;;;;;;;7.72;4.70;;;;;;;;;;4919504;29;20040;-56
2021/05/24 07:52:22;;;;;;;8.80;4.75;;;;;;;;;;4917803;29;20039;-55
2021/05/24 07:54:48;;;;;;;10.15;6.13;;;;;;;;;;4918213;29;20058;-54
2021/05/24 07:57:14;;;;;;;9.60;6.13;;;;;;;;;;4918821;29;20565;-54
2021/05/24 07:59:40;;;;;;;9.85;7.00;;;;;;;;;;4917880;29;20119;-55
2021/05/24 08:02:06;;;;;;;15.15;8.52;;;;;;;;;;4918863;29;20158;-56
2021/05/24 08:04:32;;;;;;;23.55;11.23;;;;;;;;;;4918365;29;20106;-56
2021/05/24 08:06:58;;;;;;;21.40;11.88;;;;;;;;;;4918184;29;20044;-55
2021/05/24 08:09:24;;;;;;;20.67;11.93;;;;;;;;;;4918301;29;20059;-57
2021/05/24 08:11:50;;;;;;;24.73;13.63;;;;;;;;;;4918667;29;20044;-55
2021/05/24 08:14:16;;;;;;;27.65;15.18;;;;;;;;;;4918231;29;20324;-55
2021/05/24 08:16:42;;;;;;;25.13;14.30;;;;;;;;;;4917814;29;20594;-54
2021/05/24 08:19:08;;;;;;;28.85;15.80;;;;;;;;;;4919443;29;20419;-52
2021/05/24 08:21:34;;;;;;;31.83;15.65;;;;;;;;;;4918225;29;20039;-52
2021/05/24 08:24:00;;;;;;;26.70;15.13;;;;;;;;;;4916453;29;20047;-54
2021/05/24 08:26:25;;;;;;;31.90;15.98;;;;;;;;;;4917818;29;20047;-56
2021/05/24 08:28:51;;;;;;;24.02;14.70;;;;;;;;;;4916121;29;20040;-56
2021/05/24 08:31:17;;;;;;;30.23;15.88;;;;;;;;;;4918338;29;20166;-56
2021/05/24 08:33:43;;;;;;;30.02;15.23;;;;;;;;;;4918054;29;20055;-52
2021/05/24 08:36:09;;;;;;;29.73;15.02;;;;;;;;;;4918715;29;20135;-53
2021/05/24 08:38:35;;;;;;;24.70;13.50;;;;;;;;;;4917274;29;20039;-52
2021/05/24 08:41:07;;;;;;;30.15;13.35;;;;;;;;;;4918648;29;20040;-56
2021/05/24 08:43:36;;;;;;;23.20;12.43;;;;;;;;;;4917749;29;20060;-55
2021/05/24 08:46:03;;;;;;;22.35;12.23;;;;;;;;;;4918301;29;21021;-53
2021/05/24 08:48:29;;;;;;;30.20;13.75;;;;;;;;;;4918452;29;20062;-54
2021/05/24 08:50:55;;;;;;;28.27;13.95;;;;;;;;;;4922540;29;20551;-53
2021/05/24 08:53:21;;;;;;;34.30;14.32;;;;;;;;;;4918939;29;20407;-55
2021/05/24 08:55:47;;;;;;;35.92;14.23;;;;;;;;;;4917187;29;20036;-52
2021/05/24 08:58:13;;;;;;;34.55;14.07;;;;;;;;;;4918041;29;20553;-52
2021/05/24 09:00:39;;;;;;;34.83;14.35;;;;;;;;;;4915155;29;20150;-55
2021/05/24 09:03:14;;;;;;;37.08;14.05;;;;;;;;;;4917208;29;20598;-55
2021/05/24 09:05:40;;;;;;;44.28;14.35;;;;;;;;;;4917233;29;20040;-53
2021/05/24 09:08:07;;;;;;;38.38;14.15;;;;;;;;;;4919593;29;20119;-53
2021/05/24 09:10:36;;;;;;;33.17;13.35;;;;;;;;;;4917923;29;20064;-55
2021/05/24 09:13:28;;;;;;;33.40;13.95;;;;;;;;;;4918322;29;20056;-53
2021/05/24 09:15:54;;;;;;;49.40;21.50;;;;;;;;;;4915788;29;20063;-53
2021/05/24 09:18:20;;;;;;;45.03;21.15;;;;;;;;;;4916804;29;20602;-52
2021/05/24 09:20:50;;;;;;;77.50;36.92;;;;;;;;;;4918605;29;20119;-52
2021/05/24 09:23:17;;;;;;;75.93;30.15;;;;;;;;;;4918366;29;20438;-55
2021/05/24 09:25:46;;;;;;;67.57;22.35;;;;;;;;;;4915592;29;20042;-52
2021/05/24 09:28:29;;;;;;;65.72;21.42;;;;;;;;;;4918719;29;20039;-54
2021/05/24 09:30:56;;;;;;;46.10;13.63;;;;;;;;;;4912693;29;20538;-54
2021/05/24 09:33:22;;;;;;;42.75;11.85;;;;;;;;;;4916191;29;20044;-53
2021/05/24 09:35:50;;;;;;;76.13;19.50;;;;;;;;;;4916574;29;20063;-56
2021/05/24 09:38:16;;;;;;;134.60;34.10;;;;;;;;;;4915677;29;20409;-55
2021/05/24 09:40:44;;;;;;;144.52;37.95;;;;;;;;;;4915444;29;20214;-54
2021/05/24 09:43:10;;;;;;;68.75;18.52;;;;;;;;;;4917123;29;20521;-54
2021/05/24 09:45:39;;;;;;;51.08;13.70;;;;;;;;;;4915593;29;20043;-54
2021/05/24 09:48:06;;;;;;;49.28;12.88;;;;;;;;;;4916518;29;20091;-55
2021/05/24 09:50:32;;;;;;;49.58;12.48;;;;;;;;;;4916459;29;20051;-55
2021/05/24 09:52:57;;;;;;;40.88;11.45;;;;;;;;;;4916300;29;20128;-53
2021/05/24 09:55:24;;;;;;;45.00;13.55;;;;;;;;;;4916823;29;20943;-55
2021/05/24 09:58:11;;;;;;;43.60;12.75;;;;;;;;;;4915610;29;20127;-53
2021/05/24 10:00:45;;;;;;;44.25;12.05;;;;;;;;;;4916574;29;22110;-52
2021/05/24 10:03:12;;;;;;;52.55;12.88;;;;;;;;;;4916411;29;20459;-55
2021/05/24 10:05:39;;;;;;;52.88;11.98;;;;;;;;;;4917407;29;20410;-54
2021/05/24 10:08:05;;;;;;;52.67;12.00;;;;;;;;;;4916025;29;20047;-51
2021/05/24 10:10:31;;;;;;;111.50;13.77;;;;;;;;;;4917236;29;20051;-51
2021/05/24 10:12:58;;;;;;;94.18;13.68;;;;;;;;;;4919254;29;20446;-52
2021/05/24 10:15:24;;;;;;;96.00;13.30;;;;;;;;;;4917845;29;20063;-53
2021/05/24 10:17:57;;;;;;;99.18;12.40;;;;;;;;;;4923932;29;20778;-53
2021/05/24 10:20:23;;;;;;;78.93;11.10;;;;;;;;;;4926847;29;20043;-54
2021/05/24 10:22:49;;;;;;;65.68;10.18;;;;;;;;;;4920590;29;20099;-54
2021/05/24 10:25:15;;;;;;;59.60;9.90;;;;;;;;;;4922275;29;20059;-55
2021/05/24 10:27:41;;;;;;;74.15;11.20;;;;;;;;;;4918304;29;20044;-54
2021/05/24 10:30:07;;;;;;;144.63;11.77;;;;;;;;;;4918580;29;20057;-50
2021/05/24 10:32:34;;;;;;;162.52;11.50;;;;;;;;;;4917811;29;20039;-53
2021/05/24 10:35:00;;;;;;;154.25;12.52;;;;;;;;;;4918272;29;20202;-52
2021/05/24 10:37:26;;;;;;;214.48;12.80;;;;;;;;;;4915788;29;20043;-54
2021/05/24 10:40:02;;;;;;;236.48;12.77;;;;;;;;;;4917780;29;20464;-55
2021/05/24 10:42:40;;;;;;;256.30;12.48;;;;;;;;;;4915462;29;20051;-54
2021/05/24 10:45:20;;;;;;;261.13;12.65;;;;;;;;;;4917163;29;20157;-51
2021/05/24 10:47:57;;;;;;;187.63;10.27;;;;;;;;;;4907539;29;20130;-54
2021/05/24 10:50:25;;;;;;;164.93;10.15;;;;;;;;;;4915712;29;20040;-53
2021/05/24 10:53:13;;;;;;;170.23;10.23;;;;;;;;;;4916379;29;20046;-52
2021/05/24 10:55:44;;;;;;;161.25;10.02;;;;;;;;;;4908127;29;20031;-52
2021/05/24 10:58:10;;;;;;;132.68;9.52;;;;;;;;;;4915066;29;20048;-52
2021/05/24 11:00:49;;;;;;;135.25;8.93;;;;;;;;;;4913602;29;20032;-52
2021/05/24 11:03:15;;;;;;;72.82;8.50;;;;;;;;;;4917181;29;20060;-54
2021/05/24 11:05:41;;;;;;;113.13;8.82;;;;;;;;;;4914230;29;20484;-51
2021/05/24 11:08:07;;;;;;;43.08;8.25;;;;;;;;;;4912234;29;20071;-55
2021/05/24 11:10:39;;;;;;;33.22;8.50;;;;;;;;;;4913730;29;20135;-53
2021/05/24 11:13:11;;;;;;;34.75;7.60;;;;;;;;;;4915728;29;20063;-52
2021/05/24 11:15:44;;;;;;;29.25;7.18;;;;;;;;;;4915171;29;20435;-55
2021/05/24 11:18:11;;;;;;;23.35;6.78;;;;;;;;;;4915767;29;20115;-54
2021/05/24 11:20:43;;;;;;;27.38;6.68;;;;;;;;;;4914799;29;20032;-54
2021/05/24 11:25:58;;;;;;;32.50;7.05;;;;;;;;;;4916181;29;20036;-52
2021/05/24 11:28:34;;;;;;;21.25;6.35;;;;;;;;;;4913675;29;20044;-53
2021/05/24 11:31:09;;;;;;;29.95;7.15;;;;;;;;;;4914537;29;20499;-52
2021/05/24 11:33:38;;;;;;;29.08;7.78;;;;;;;;;;4915343;29;20471;-52
2021/05/24 11:36:05;;;;;;;24.92;6.20;;;;;;;;;;4917195;29;20056;-55
2021/05/24 11:38:31;;;;;;;21.30;6.43;;;;;;;;;;4916375;29;20036;-53
2021/05/24 11:41:14;;;;;;;27.77;6.65;;;;;;;;;;4917396;29;20051;-55
2021/05/24 11:43:41;;;;;;;25.67;6.15;;;;;;;;;;4915926;29;20111;-54
2021/05/24 11:46:08;;;;;;;19.85;6.32;;;;;;;;;;4916172;29;20044;-53
2021/05/24 11:48:38;;;;;;;17.52;5.80;;;;;;;;;;4915246;29;20067;-55
2021/05/24 11:51:04;;;;;;;24.25;5.70;;;;;;;;;;4915544;29;20054;-55
2021/05/24 11:53:31;;;;;;;27.25;6.07;;;;;;;;;;4915776;29;20047;-55
2021/05/24 11:56:06;;;;;;;20.77;5.75;;;;;;;;;;4915833;29;20040;-54
2021/05/24 11:58:32;;;;;;;27.30;6.78;;;;;;;;;;4914278;29;20062;-54
2021/05/24 12:01:04;;;;;;;26.40;6.63;;;;;;;;;;4915547;29;20745;-55
2021/05/24 12:03:30;;;;;;;26.70;6.32;;;;;;;;;;4914488;29;20102;-52
2021/05/24 12:05:56;;;;;;;26.85;7.05;;;;;;;;;;4916440;29;20570;-54
2021/05/24 12:08:22;;;;;;;21.13;5.75;;;;;;;;;;4915062;29;20082;-54
2021/05/24 12:10:57;;;;;;;24.55;6.55;;;;;;;;;;4916905;29;20154;-53
2021/05/24 12:13:23;;;;;;;24.13;6.40;;;;;;;;;;4920399;29;20055;-54
2021/05/24 12:15:49;;;;;;;20.30;6.45;;;;;;;;;;4918714;29;20039;-55
2021/05/24 12:18:14;;;;;;;15.93;5.32;;;;;;;;;;4920016;29;20665;-55
2021/05/24 12:20:40;;;;;;;10.30;3.90;;;;;;;;;;4918202;29;20047;-55
2021/05/24 12:23:06;;;;;;;14.68;5.50;;;;;;;;;;4917617;29;20210;-55
2021/05/24 12:25:32;;;;;;;22.02;6.93;;;;;;;;;;4915732;29;20084;-55
2021/05/24 12:27:58;;;;;;;19.67;6.53;;;;;;;;;;4918369;29;20157;-55
2021/05/24 12:30:39;;;;;;;24.23;7.07;;;;;;;;;;4917530;29;20063;-55
2021/05/24 12:33:06;;;;;;;24.45;7.85;;;;;;;;;;4918976;29;20052;-54
2021/05/24 12:35:32;;;;;;;20.15;6.55;;;;;;;;;;4915672;29;20131;-53
2021/05/24 12:38:21;;;;;;;19.05;6.10;;;;;;;;;;4918516;29;20035;-52
2021/05/24 12:40:53;;;;;;;22.45;7.10;;;;;;;;;;4916965;29;20923;-54
2021/05/24 12:43:19;;;;;;;20.70;7.37;;;;;;;;;;4918097;29;20071;-51
2021/05/24 12:45:46;;;;;;;25.17;8.25;;;;;;;;;;4917927;29;20169;-51
2021/05/24 12:48:13;;;;;;;24.15;7.63;;;;;;;;;;4916637;29;20043;-55
2021/05/24 12:50:39;;;;;;;22.52;8.10;;;;;;;;;;4917855;29;20392;-52
2021/05/24 12:53:12;;;;;;;24.38;7.85;;;;;;;;;;4918015;29;20047;-52
2021/05/24 12:55:38;;;;;;;22.50;8.07;;;;;;;;;;4916111;29;20043;-56
2021/05/24 12:58:14;;;;;;;22.05;7.45;;;;;;;;;;4899007;29;20402;-56
2021/05/24 13:00:43;;;;;;;24.73;8.05;;;;;;;;;;4916748;29;20047;-53
2021/05/24 13:03:09;;;;;;;24.45;7.82;;;;;;;;;;4917176;29;20040;-56
2021/05/24 13:05:35;;;;;;;29.05;9.40;;;;;;;;;;4916244;29;20048;-55
2021/05/24 13:08:03;;;;;;;29.75;9.25;;;;;;;;;;4917057;29;20035;-56
2021/05/24 13:10:33;;;;;;;30.48;9.35;;;;;;;;;;4914632;29;20059;-54
2021/05/24 13:13:12;;;;;;;33.88;9.70;;;;;;;;;;4918994;29;20150;-55
2021/05/24 13:15:39;;;;;;;32.10;8.77;;;;;;;;;;4916662;29;20054;-52
2021/05/24 13:18:18;;;;;;;27.52;9.02;;;;;;;;;;4915944;29;20036;-55
2021/05/24 13:31:36;;;;;;;28.83;7.65;;;;;;;;;;4916278;29;20527;-55
2021/05/24 13:34:02;;;;;;;41.13;11.40;;;;;;;;;;4917719;29;20499;-56
2021/05/24 13:36:29;;;;;;;44.78;11.60;;;;;;;;;;4916445;29;20167;-52
2021/05/24 13:39:00;;;;;;;51.17;12.95;;;;;;;;;;4920056;29;20046;-53
2021/05/24 13:41:26;;;;;;;38.15;10.98;;;;;;;;;;4915773;29;20511;-53
2021/05/24 13:43:52;;;;;;;44.08;12.32;;;;;;;;;;4916461;29;20051;-55
2021/05/24 13:46:18;;;;;;;46.80;12.98;;;;;;;;;;4915293;29;20036;-54
2021/05/24 13:48:43;;;;;;;52.30;13.93;;;;;;;;;;4915507;29;20525;-55
2021/05/24 13:51:09;;;;;;;50.97;14.20;;;;;;;;;;4917172;29;20082;-55
2021/05/24 13:53:38;;;;;;;46.20;13.15;;;;;;;;;;4915301;29;20919;-56
2021/05/24 13:56:04;;;;;;;44.88;13.82;;;;;;;;;;4912304;29;20043;-54
2021/05/24 13:58:29;;;;;;;58.85;15.30;;;;;;;;;;4915496;29;20040;-54
2021/05/24 14:00:56;;;;;;;55.58;16.08;;;;;;;;;;4915976;29;20052;-54
2021/05/24 14:03:21;;;;;;;52.63;15.80;;;;;;;;;;4915199;29;20118;-53
2021/05/24 14:05:47;;;;;;;50.28;15.05;;;;;;;;;;4915790;29;20542;-55
2021/05/24 14:08:13;;;;;;;48.17;15.57;;;;;;;;;;4915738;29;20044;-55
2021/05/24 14:10:39;;;;;;;53.30;16.73;;;;;;;;;;4914389;29;20048;-54
2021/05/24 14:13:05;;;;;;;33.60;10.73;;;;;;;;;;4914941;29;20741;-56
2021/05/24 14:15:31;;;;;;;49.60;16.05;;;;;;;;;;4916202;29;20039;-52
2021/05/24 14:17:57;;;;;;;47.05;16.48;;;;;;;;;;4912791;29;20035;-54
2021/05/24 14:20:23;;;;;;;49.92;16.15;;;;;;;;;;4910492;29;20390;-55
2021/05/24 14:22:49;;;;;;;51.08;15.85;;;;;;;;;;4916458;29;20036;-56
2021/05/24 14:25:15;;;;;;;53.25;16.10;;;;;;;;;;4917804;29;20410;-54
2021/05/24 14:27:41;;;;;;;51.67;15.18;;;;;;;;;;4915511;29;20052;-56
2021/05/24 14:30:07;;;;;;;59.28;16.85;;;;;;;;;;4914358;29;20123;-54
2021/05/24 14:32:33;;;;;;;56.50;16.85;;;;;;;;;;4915300;29;20044;-55
2021/05/24 14:35:00;;;;;;;42.40;13.73;;;;;;;;;;4915289;29;20605;-55
2021/05/24 14:37:26;;;;;;;49.33;14.85;;;;;;;;;;4914314;29;20050;-55
2021/05/24 14:39:57;;;;;;;51.90;15.18;;;;;;;;;;4915733;29;20076;-54
2021/05/24 14:42:22;;;;;;;57.63;15.35;;;;;;;;;;4914163;29;20383;-52
2021/05/24 14:44:48;;;;;;;47.03;14.65;;;;;;;;;;4914888;29;20047;-56
2021/05/24 14:47:15;;;;;;;35.38;11.88;;;;;;;;;;4916050;29;20055;-54